Skip Navigation LinksHome page > Weather > Current weather Skip Navigation Links

Current Weather

Eureka, Nunavut

For information only: do not use for flight planning or navigation.
Latest weather
Observation time Saturday, September 20, 2014 2:00 PM CDT
Local time Saturday, September 20, 2014 3:01 PM CDT
Flight conditions Visual Meteorological Conditions
Winds
Wind direction South-Southeast (160°)
Wind speed 7 mph
Visibility 15 mi.
Sky condition
Ceiling unlimited
Cloud layer few clouds 20,000 ft.
Temperature 21°F
Dewpoint 19°F
Altimeter 29.81 in.Hg
Derived measurements
Relative humidity 93%
Wind chill 13°F
Density altitude -2381 ft.
Sea-level pressure 29.81 in.Hg
Remarks
East west.
METAR CWEU 201900Z 16006KT 15SM FEW200 M06/M07 A2981 RMK CI1 FG BANK E W SLP095

Settings

Location code

InnerDrive.Weather 4.0.5372.0 Release CLR 4.0.30319.34014
Copyright ©2014 Inner Drive Technology. All rights reserved. Portions Copyright ©1986-2014 David Braverman.

Find weather

Site navigation


Skip Navigation Links

Place info

Page info

PayPal - The safer, easier way to pay online!

Return home.

Copyright ©2014 Inner Drive Technology. Purveyors of fine, hand-crafted computer software. Page printed 2014-09-20T20:01:22 UTC.